Cape Farewell — CFG7698 — position and weather

sailwx.info

Track history (hours):
 
Tides and Currents Weather Stations Pressure Air Temp Water Temp Dewpoint Dewpoint Depression Visibility Wind Speed Wind Dir Waves Ship Positions

Cape Farewell

Last reported at 2017-Oct-03 13:13 UTC. Time now 2017-Oct-19 15:06 UTC.
Position N 48°39' W 123°27'.
Warning: this ship's position is 16 days out of date.

Type: SAR. MMSI: 316003545.

Date/timePositionNaut miles runAvg speedWind from/ knotsBaromVisibWave heightAir tempDewpointWater temp
2017-Oct-03 13:13N 48°39' W 123°27'  
2017-Sep-27 23:22N 48°45' W 123°34'822.3
2017-Sep-27 23:00N 48°53' W 123°37'1223.4
2017-Sep-27 22:30N 49°04' W 123°45'1122.0
2017-Sep-27 22:01N 49°13' W 123°55'1325.2
2017-Sep-27 21:31N 49°20' W 124°11'1325.4
2017-Sep-27 21:00N 49°28' W 124°26'1224.9
2017-Sep-27 20:31N 49°36' W 124°40'1325.1
2017-Sep-27 20:01N 49°45' W 124°54'1224.7
2017-Sep-27 19:30N 49°55' W 125°06'918.4
2017-Sep-27 19:00N 50°02' W 125°15'2 4.0
2017-Sep-27 18:30N 50°04' W 125°16'1020.1
2017-Sep-27 18:00N 50°13' W 125°23'5418.9
2017-Sep-27 15:09N 50°32' W 126°42'321.8
2017-Sep-27 15:00N 50°33' W 126°47'12 0.9
2017-Sep-27 01:45N 50°36' W 127°05'2 9.0
2017-Sep-27 01:29N 50°37' W 127°08'1224.1
2017-Sep-27 00:59N 50°46' W 127°20'1225.8
2017-Sep-27 00:31N 50°56' W 127°31'1325.3
2017-Sep-27 00:00N 51°06' W 127°45'1224.6
2017-Sep-26 23:30N 51°18' W 127°52'1325.3
2017-Sep-26 23:00N 51°30' W 127°52'1325.7
2017-Sep-26 22:30N 51°43' W 127°54'1325.6
2017-Sep-26 22:00N 51°56' W 127°56'1019.9
2017-Sep-26 21:30N 52°04' W 128°04'  
2017-Sep-23 19:44N 52°10' W 128°08'  
Track history (hours):
 
Tides and Currents Weather Stations Pressure Air Temp Water Temp Dewpoint Dewpoint Depression Visibility Wind Speed Wind Dir Waves Ship Positions

Cape Farewell

Last reported at 2017-Oct-03 13:13 UTC. Time now 2017-Oct-19 15:06 UTC.
Position N 48°39' W 123°27'.
Warning: this ship's position is 16 days out of date.

Type: SAR. MMSI: 316003545.

Date/timePositionNaut miles runAvg speedWind from/ knotsBaromVisibWave heightAir tempDewpointWater temp
2017-Oct-03 13:13N 48°39' W 123°27'  
2017-Sep-27 23:22N 48°45' W 123°34'822.3
2017-Sep-27 23:00N 48°53' W 123°37'1223.4
2017-Sep-27 22:30N 49°04' W 123°45'1122.0
2017-Sep-27 22:01N 49°13' W 123°55'1325.2
2017-Sep-27 21:31N 49°20' W 124°11'1325.4
2017-Sep-27 21:00N 49°28' W 124°26'1224.9
2017-Sep-27 20:31N 49°36' W 124°40'1325.1
2017-Sep-27 20:01N 49°45' W 124°54'1224.7
2017-Sep-27 19:30N 49°55' W 125°06'918.4
2017-Sep-27 19:00N 50°02' W 125°15'2 4.0
2017-Sep-27 18:30N 50°04' W 125°16'1020.1
2017-Sep-27 18:00N 50°13' W 125°23'5418.9
2017-Sep-27 15:09N 50°32' W 126°42'321.8
2017-Sep-27 15:00N 50°33' W 126°47'12 0.9
2017-Sep-27 01:45N 50°36' W 127°05'2 9.0
2017-Sep-27 01:29N 50°37' W 127°08'1224.1
2017-Sep-27 00:59N 50°46' W 127°20'1225.8
2017-Sep-27 00:31N 50°56' W 127°31'1325.3
2017-Sep-27 00:00N 51°06' W 127°45'1224.6
2017-Sep-26 23:30N 51°18' W 127°52'1325.3
2017-Sep-26 23:00N 51°30' W 127°52'1325.7
2017-Sep-26 22:30N 51°43' W 127°54'1325.6
2017-Sep-26 22:00N 51°56' W 127°56'1019.9
2017-Sep-26 21:30N 52°04' W 128°04'  
2017-Sep-23 19:44N 52°10' W 128°08'  

Dump ship's entire track history